sensor_id;sensor_type;location;lat;lon;timestamp;P1;durP1;ratioP1;P2;durP2;ratioP2
2722;SDS011;1369;53.216;10.396;2022-08-18T00:01:45;2.93;;;2.63;;
2722;SDS011;1369;53.216;10.396;2022-08-18T00:04:13;3.20;;;2.90;;
2722;SDS011;1369;53.216;10.396;2022-08-18T00:06:39;3.63;;;3.10;;
2722;SDS011;1369;53.216;10.396;2022-08-18T00:09:06;4.97;;;3.87;;
2722;SDS011;1369;53.216;10.396;2022-08-18T00:11:34;4.10;;;3.27;;
2722;SDS011;1369;53.216;10.396;2022-08-18T00:14:02;4.00;;;3.40;;
2722;SDS011;1369;53.216;10.396;2022-08-18T00:16:28;4.97;;;3.90;;
2722;SDS011;1369;53.216;10.396;2022-08-18T00:18:54;7.43;;;3.97;;
2722;SDS011;1369;53.216;10.396;2022-08-18T00:21:19;5.57;;;3.20;;
2722;SDS011;1369;53.216;10.396;2022-08-18T00:23:45;3.70;;;2.97;;
2722;SDS011;1369;53.216;10.396;2022-08-18T00:26:10;3.37;;;2.60;;
2722;SDS011;1369;53.216;10.396;2022-08-18T00:28:36;3.70;;;2.80;;
2722;SDS011;1369;53.216;10.396;2022-08-18T00:31:03;4.43;;;3.53;;
2722;SDS011;1369;53.216;10.396;2022-08-18T00:33:28;4.10;;;3.20;;
2722;SDS011;1369;53.216;10.396;2022-08-18T00:35:54;3.93;;;3.20;;
2722;SDS011;1369;53.216;10.396;2022-08-18T00:38:20;5.03;;;3.30;;
2722;SDS011;1369;53.216;10.396;2022-08-18T00:40:47;3.77;;;3.07;;
2722;SDS011;1369;53.216;10.396;2022-08-18T00:43:17;5.47;;;4.13;;
2722;SDS011;1369;53.216;10.396;2022-08-18T00:45:47;5.57;;;3.70;;
2722;SDS011;1369;53.216;10.396;2022-08-18T00:48:13;3.20;;;2.53;;
2722;SDS011;1369;53.216;10.396;2022-08-18T00:50:39;3.80;;;3.47;;
2722;SDS011;1369;53.216;10.396;2022-08-18T00:56:02;5.20;;;3.60;;
2722;SDS011;1369;53.216;10.396;2022-08-18T00:59:19;4.83;;;3.63;;
2722;SDS011;1369;53.216;10.396;2022-08-18T01:01:23;3.90;;;3.40;;
2722;SDS011;1369;53.216;10.396;2022-08-18T01:03:58;4.67;;;3.20;;
2722;SDS011;1369;53.216;10.396;2022-08-18T01:06:53;3.90;;;3.30;;
2722;SDS011;1369;53.216;10.396;2022-08-18T01:09:22;4.40;;;3.30;;
2722;SDS011;1369;53.216;10.396;2022-08-18T01:11:48;6.90;;;4.33;;
2722;SDS011;1369;53.216;10.396;2022-08-18T01:14:15;3.60;;;3.27;;
2722;SDS011;1369;53.216;10.396;2022-08-18T01:16:42;5.67;;;3.90;;
2722;SDS011;1369;53.216;10.396;2022-08-18T01:19:28;3.90;;;2.90;;
2722;SDS011;1369;53.216;10.396;2022-08-18T01:22:23;4.20;;;3.33;;
2722;SDS011;1369;53.216;10.396;2022-08-18T01:24:56;3.90;;;3.00;;
2722;SDS011;1369;53.216;10.396;2022-08-18T01:27:42;4.43;;;3.30;;
2722;SDS011;1369;53.216;10.396;2022-08-18T01:30:09;4.57;;;3.87;;
2722;SDS011;1369;53.216;10.396;2022-08-18T01:32:38;4.43;;;3.47;;
2722;SDS011;1369;53.216;10.396;2022-08-18T01:35:06;4.57;;;3.10;;
2722;SDS011;1369;53.216;10.396;2022-08-18T01:37:34;4.20;;;3.53;;
2722;SDS011;1369;53.216;10.396;2022-08-18T01:40:00;4.17;;;2.80;;
2722;SDS011;1369;53.216;10.396;2022-08-18T01:42:30;4.80;;;4.30;;
2722;SDS011;1369;53.216;10.396;2022-08-18T01:44:55;3.40;;;3.10;;
2722;SDS011;1369;53.216;10.396;2022-08-18T01:47:21;7.13;;;3.60;;
2722;SDS011;1369;53.216;10.396;2022-08-18T01:49:47;4.63;;;3.33;;
2722;SDS011;1369;53.216;10.396;2022-08-18T01:52:13;4.50;;;4.10;;
2722;SDS011;1369;53.216;10.396;2022-08-18T01:54:44;4.13;;;3.40;;
2722;SDS011;1369;53.216;10.396;2022-08-18T01:57:10;5.40;;;3.40;;
2722;SDS011;1369;53.216;10.396;2022-08-18T01:59:37;3.17;;;2.87;;
2722;SDS011;1369;53.216;10.396;2022-08-18T02:02:03;4.00;;;3.07;;
2722;SDS011;1369;53.216;10.396;2022-08-18T02:04:29;5.73;;;2.83;;
2722;SDS011;1369;53.216;10.396;2022-08-18T02:06:57;4.90;;;3.53;;
2722;SDS011;1369;53.216;10.396;2022-08-18T02:09:25;4.73;;;3.50;;
2722;SDS011;1369;53.216;10.396;2022-08-18T02:11:51;3.97;;;3.57;;
2722;SDS011;1369;53.216;10.396;2022-08-18T02:14:17;3.53;;;3.23;;
2722;SDS011;1369;53.216;10.396;2022-08-18T02:16:42;5.03;;;3.40;;
2722;SDS011;1369;53.216;10.396;2022-08-18T02:19:08;4.40;;;3.80;;
2722;SDS011;1369;53.216;10.396;2022-08-18T02:21:33;4.30;;;3.70;;
2722;SDS011;1369;53.216;10.396;2022-08-18T02:23:59;4.13;;;3.10;;
2722;SDS011;1369;53.216;10.396;2022-08-18T02:26:24;5.20;;;2.87;;
2722;SDS011;1369;53.216;10.396;2022-08-18T02:28:50;4.17;;;3.20;;
2722;SDS011;1369;53.216;10.396;2022-08-18T02:31:17;4.00;;;3.10;;
2722;SDS011;1369;53.216;10.396;2022-08-18T02:33:45;5.17;;;3.20;;
2722;SDS011;1369;53.216;10.396;2022-08-18T02:36:11;3.40;;;2.90;;
2722;SDS011;1369;53.216;10.396;2022-08-18T02:38:38;15.60;;;4.17;;
2722;SDS011;1369;53.216;10.396;2022-08-18T02:41:05;4.87;;;3.20;;
2722;SDS011;1369;53.216;10.396;2022-08-18T02:50:16;4.83;;;3.60;;
2722;SDS011;1369;53.216;10.396;2022-08-18T02:52:42;8.20;;;3.43;;
2722;SDS011;1369;53.216;10.396;2022-08-18T02:55:08;4.30;;;3.57;;
2722;SDS011;1369;53.216;10.396;2022-08-18T02:57:34;3.67;;;3.27;;
2722;SDS011;1369;53.216;10.396;2022-08-18T03:00:00;5.27;;;4.17;;
2722;SDS011;1369;53.216;10.396;2022-08-18T03:02:25;4.07;;;3.23;;
2722;SDS011;1369;53.216;10.396;2022-08-18T03:04:51;5.30;;;3.67;;
2722;SDS011;1369;53.216;10.396;2022-08-18T03:07:16;2.80;;;2.40;;
2722;SDS011;1369;53.216;10.396;2022-08-18T03:09:42;3.87;;;3.20;;
2722;SDS011;1369;53.216;10.396;2022-08-18T03:12:08;3.80;;;3.10;;
2722;SDS011;1369;53.216;10.396;2022-08-18T03:14:35;4.23;;;3.70;;
2722;SDS011;1369;53.216;10.396;2022-08-18T03:17:05;4.10;;;3.23;;
2722;SDS011;1369;53.216;10.396;2022-08-18T03:19:32;4.47;;;3.87;;
2722;SDS011;1369;53.216;10.396;2022-08-18T03:21:58;4.30;;;3.30;;
2722;SDS011;1369;53.216;10.396;2022-08-18T03:24:27;6.30;;;2.83;;
2722;SDS011;1369;53.216;10.396;2022-08-18T03:26:53;6.47;;;3.67;;
2722;SDS011;1369;53.216;10.396;2022-08-18T03:29:21;4.30;;;3.40;;
2722;SDS011;1369;53.216;10.396;2022-08-18T03:31:47;4.57;;;3.57;;
2722;SDS011;1369;53.216;10.396;2022-08-18T03:34:13;5.33;;;3.20;;
2722;SDS011;1369;53.216;10.396;2022-08-18T03:36:41;3.80;;;3.03;;
2722;SDS011;1369;53.216;10.396;2022-08-18T03:39:08;5.57;;;3.70;;
2722;SDS011;1369;53.216;10.396;2022-08-18T03:41:36;4.70;;;3.07;;
2722;SDS011;1369;53.216;10.396;2022-08-18T03:44:03;3.30;;;2.70;;
2722;SDS011;1369;53.216;10.396;2022-08-18T03:46:30;4.07;;;2.80;;
2722;SDS011;1369;53.216;10.396;2022-08-18T03:48:56;4.37;;;3.20;;
2722;SDS011;1369;53.216;10.396;2022-08-18T03:51:24;3.93;;;2.80;;
2722;SDS011;1369;53.216;10.396;2022-08-18T03:53:51;3.77;;;3.10;;
2722;SDS011;1369;53.216;10.396;2022-08-18T03:56:20;3.23;;;2.73;;
2722;SDS011;1369;53.216;10.396;2022-08-18T03:58:52;3.23;;;2.93;;
2722;SDS011;1369;53.216;10.396;2022-08-18T04:01:20;3.90;;;2.70;;
2722;SDS011;1369;53.216;10.396;2022-08-18T04:03:50;4.07;;;3.30;;
2722;SDS011;1369;53.216;10.396;2022-08-18T04:06:19;3.60;;;2.90;;
2722;SDS011;1369;53.216;10.396;2022-08-18T04:08:49;5.60;;;3.60;;
2722;SDS011;1369;53.216;10.396;2022-08-18T04:11:16;4.47;;;3.50;;
2722;SDS011;1369;53.216;10.396;2022-08-18T04:13:41;3.27;;;2.87;;
2722;SDS011;1369;53.216;10.396;2022-08-18T04:16:07;5.63;;;3.60;;
2722;SDS011;1369;53.216;10.396;2022-08-18T04:18:33;4.17;;;3.60;;
2722;SDS011;1369;53.216;10.396;2022-08-18T04:21:02;6.00;;;3.00;;
2722;SDS011;1369;53.216;10.396;2022-08-18T04:23:32;4.83;;;3.20;;
2722;SDS011;1369;53.216;10.396;2022-08-18T04:26:02;3.77;;;3.10;;
2722;SDS011;1369;53.216;10.396;2022-08-18T04:28:28;4.93;;;3.50;;
2722;SDS011;1369;53.216;10.396;2022-08-18T04:30:54;7.53;;;4.10;;
2722;SDS011;1369;53.216;10.396;2022-08-18T04:33:23;4.10;;;3.27;;
2722;SDS011;1369;53.216;10.396;2022-08-18T04:35:50;4.33;;;3.93;;
2722;SDS011;1369;53.216;10.396;2022-08-18T04:38:16;6.30;;;3.20;;
2722;SDS011;1369;53.216;10.396;2022-08-18T04:40:41;3.93;;;3.00;;
2722;SDS011;1369;53.216;10.396;2022-08-18T04:43:07;3.00;;;2.70;;
2722;SDS011;1369;53.216;10.396;2022-08-18T04:45:39;4.40;;;2.80;;
2722;SDS011;1369;53.216;10.396;2022-08-18T04:48:09;3.77;;;2.53;;
2722;SDS011;1369;53.216;10.396;2022-08-18T04:50:35;6.07;;;4.33;;
2722;SDS011;1369;53.216;10.396;2022-08-18T04:53:02;4.37;;;3.37;;
2722;SDS011;1369;53.216;10.396;2022-08-18T04:55:48;4.63;;;3.17;;
2722;SDS011;1369;53.216;10.396;2022-08-18T04:58:15;4.07;;;2.93;;
2722;SDS011;1369;53.216;10.396;2022-08-18T05:00:43;3.20;;;2.77;;
2722;SDS011;1369;53.216;10.396;2022-08-18T05:03:19;3.43;;;3.13;;
2722;SDS011;1369;53.216;10.396;2022-08-18T05:05:48;4.60;;;3.23;;
2722;SDS011;1369;53.216;10.396;2022-08-18T05:08:13;3.57;;;2.90;;
2722;SDS011;1369;53.216;10.396;2022-08-18T05:10:39;4.63;;;3.80;;
2722;SDS011;1369;53.216;10.396;2022-08-18T05:13:05;8.43;;;3.60;;
2722;SDS011;1369;53.216;10.396;2022-08-18T05:15:30;4.90;;;3.33;;
2722;SDS011;1369;53.216;10.396;2022-08-18T05:17:57;6.03;;;3.60;;
2722;SDS011;1369;53.216;10.396;2022-08-18T05:20:22;3.60;;;2.90;;
2722;SDS011;1369;53.216;10.396;2022-08-18T05:22:49;3.93;;;3.57;;
2722;SDS011;1369;53.216;10.396;2022-08-18T05:25:15;4.87;;;4.33;;
2722;SDS011;1369;53.216;10.396;2022-08-18T05:27:41;4.03;;;2.70;;
2722;SDS011;1369;53.216;10.396;2022-08-18T05:30:08;3.30;;;2.30;;
2722;SDS011;1369;53.216;10.396;2022-08-18T05:32:38;3.13;;;2.80;;
2722;SDS011;1369;53.216;10.396;2022-08-18T05:35:06;5.50;;;3.40;;
2722;SDS011;1369;53.216;10.396;2022-08-18T05:40:25;3.00;;;2.67;;
2722;SDS011;1369;53.216;10.396;2022-08-18T05:42:53;4.63;;;3.37;;
2722;SDS011;1369;53.216;10.396;2022-08-18T05:45:21;6.30;;;2.90;;
2722;SDS011;1369;53.216;10.396;2022-08-18T05:47:47;4.13;;;3.10;;
2722;SDS011;1369;53.216;10.396;2022-08-18T05:50:15;4.47;;;3.93;;
2722;SDS011;1369;53.216;10.396;2022-08-18T05:55:23;4.37;;;3.73;;
2722;SDS011;1369;53.216;10.396;2022-08-18T05:58:29;3.70;;;2.57;;
2722;SDS011;1369;53.216;10.396;2022-08-18T06:00:57;3.73;;;3.13;;
2722;SDS011;1369;53.216;10.396;2022-08-18T06:03:31;5.97;;;3.43;;
2722;SDS011;1369;53.216;10.396;2022-08-18T06:06:03;6.63;;;3.77;;
2722;SDS011;1369;53.216;10.396;2022-08-18T06:08:39;3.40;;;2.97;;
2722;SDS011;1369;53.216;10.396;2022-08-18T06:11:09;4.50;;;3.17;;
2722;SDS011;1369;53.216;10.396;2022-08-18T06:13:36;6.10;;;4.73;;
2722;SDS011;1369;53.216;10.396;2022-08-18T06:16:47;7.67;;;5.47;;
2722;SDS011;1369;53.216;10.396;2022-08-18T06:27:31;5.60;;;3.63;;
2722;SDS011;1369;53.216;10.396;2022-08-18T06:30:23;5.40;;;4.50;;
2722;SDS011;1369;53.216;10.396;2022-08-18T06:35:40;7.93;;;5.57;;
2722;SDS011;1369;53.216;10.396;2022-08-18T06:38:48;5.90;;;5.27;;
2722;SDS011;1369;53.216;10.396;2022-08-18T06:41:31;7.30;;;4.80;;
2722;SDS011;1369;53.216;10.396;2022-08-18T06:44:03;6.07;;;4.67;;
2722;SDS011;1369;53.216;10.396;2022-08-18T06:49:10;9.23;;;5.77;;
2722;SDS011;1369;53.216;10.396;2022-08-18T06:51:40;6.87;;;5.00;;
2722;SDS011;1369;53.216;10.396;2022-08-18T06:54:07;8.17;;;4.17;;
2722;SDS011;1369;53.216;10.396;2022-08-18T06:56:53;9.00;;;5.20;;
2722;SDS011;1369;53.216;10.396;2022-08-18T06:59:28;7.80;;;4.90;;
2722;SDS011;1369;53.216;10.396;2022-08-18T07:01:56;11.20;;;6.10;;
2722;SDS011;1369;53.216;10.396;2022-08-18T07:04:44;7.03;;;5.10;;
2722;SDS011;1369;53.216;10.396;2022-08-18T07:07:37;6.87;;;4.67;;
2722;SDS011;1369;53.216;10.396;2022-08-18T07:10:05;7.80;;;5.67;;
2722;SDS011;1369;53.216;10.396;2022-08-18T07:13:02;11.23;;;5.80;;
2722;SDS011;1369;53.216;10.396;2022-08-18T07:15:47;8.47;;;5.30;;
2722;SDS011;1369;53.216;10.396;2022-08-18T07:18:14;9.20;;;6.27;;
2722;SDS011;1369;53.216;10.396;2022-08-18T07:20:54;10.23;;;5.90;;
2722;SDS011;1369;53.216;10.396;2022-08-18T07:23:26;9.03;;;6.03;;
2722;SDS011;1369;53.216;10.396;2022-08-18T07:26:00;8.10;;;5.67;;
2722;SDS011;1369;53.216;10.396;2022-08-18T07:28:43;9.73;;;6.13;;
2722;SDS011;1369;53.216;10.396;2022-08-18T07:34:03;9.60;;;5.57;;
2722;SDS011;1369;53.216;10.396;2022-08-18T07:36:53;8.53;;;5.77;;
2722;SDS011;1369;53.216;10.396;2022-08-18T07:39:27;9.90;;;5.80;;
2722;SDS011;1369;53.216;10.396;2022-08-18T07:42:08;9.77;;;5.43;;
2722;SDS011;1369;53.216;10.396;2022-08-18T07:44:56;5.73;;;4.50;;
2722;SDS011;1369;53.216;10.396;2022-08-18T07:47:27;8.13;;;6.40;;
2722;SDS011;1369;53.216;10.396;2022-08-18T07:50:00;10.47;;;5.60;;
2722;SDS011;1369;53.216;10.396;2022-08-18T07:52:29;9.73;;;5.40;;
2722;SDS011;1369;53.216;10.396;2022-08-18T07:55:09;8.47;;;4.93;;
2722;SDS011;1369;53.216;10.396;2022-08-18T07:57:55;7.93;;;4.77;;
2722;SDS011;1369;53.216;10.396;2022-08-18T08:01:17;11.03;;;5.80;;
2722;SDS011;1369;53.216;10.396;2022-08-18T08:03:27;8.90;;;4.50;;
2722;SDS011;1369;53.216;10.396;2022-08-18T08:06:08;11.80;;;5.50;;
2722;SDS011;1369;53.216;10.396;2022-08-18T08:14:24;10.70;;;6.27;;
2722;SDS011;1369;53.216;10.396;2022-08-18T08:17:10;12.13;;;6.80;;
2722;SDS011;1369;53.216;10.396;2022-08-18T08:20:03;10.17;;;5.60;;
2722;SDS011;1369;53.216;10.396;2022-08-18T08:22:52;9.63;;;6.40;;
2722;SDS011;1369;53.216;10.396;2022-08-18T08:31:16;10.37;;;6.80;;
2722;SDS011;1369;53.216;10.396;2022-08-18T08:33:56;12.73;;;7.47;;
2722;SDS011;1369;53.216;10.396;2022-08-18T08:36:33;9.67;;;6.40;;
2722;SDS011;1369;53.216;10.396;2022-08-18T08:39:08;9.90;;;5.30;;
2722;SDS011;1369;53.216;10.396;2022-08-18T08:41:43;14.10;;;7.03;;
2722;SDS011;1369;53.216;10.396;2022-08-18T08:47:04;7.13;;;4.83;;
2722;SDS011;1369;53.216;10.396;2022-08-18T08:49:45;9.73;;;5.70;;
2722;SDS011;1369;53.216;10.396;2022-08-18T08:52:41;8.20;;;4.40;;
2722;SDS011;1369;53.216;10.396;2022-08-18T08:55:20;6.37;;;4.10;;
2722;SDS011;1369;53.216;10.396;2022-08-18T08:57:52;12.37;;;5.40;;
2722;SDS011;1369;53.216;10.396;2022-08-18T09:00:19;7.10;;;4.33;;
2722;SDS011;1369;53.216;10.396;2022-08-18T09:05:37;8.50;;;5.77;;
2722;SDS011;1369;53.216;10.396;2022-08-18T09:11:58;8.33;;;4.40;;
2722;SDS011;1369;53.216;10.396;2022-08-18T09:14:16;7.97;;;4.80;;
2722;SDS011;1369;53.216;10.396;2022-08-18T09:17:10;7.27;;;4.20;;
2722;SDS011;1369;53.216;10.396;2022-08-18T09:25:11;9.63;;;5.10;;
2722;SDS011;1369;53.216;10.396;2022-08-18T09:30:45;8.13;;;4.17;;
2722;SDS011;1369;53.216;10.396;2022-08-18T09:36:22;8.03;;;4.70;;
2722;SDS011;1369;53.216;10.396;2022-08-18T09:42:12;7.73;;;5.30;;
2722;SDS011;1369;53.216;10.396;2022-08-18T09:47:05;4.90;;;3.80;;
2722;SDS011;1369;53.216;10.396;2022-08-18T09:49:38;5.90;;;4.13;;
2722;SDS011;1369;53.216;10.396;2022-08-18T09:54:52;7.47;;;4.73;;
2722;SDS011;1369;53.216;10.396;2022-08-18T09:57:23;7.33;;;4.90;;
2722;SDS011;1369;53.216;10.396;2022-08-18T09:59:56;8.97;;;5.30;;
2722;SDS011;1369;53.216;10.396;2022-08-18T10:07:44;7.37;;;4.80;;
2722;SDS011;1369;53.216;10.396;2022-08-18T10:13:21;9.30;;;4.90;;
2722;SDS011;1369;53.216;10.396;2022-08-18T10:22:01;4.83;;;4.17;;
2722;SDS011;1369;53.216;10.396;2022-08-18T10:24:19;12.60;;;4.67;;
2722;SDS011;1369;53.216;10.396;2022-08-18T10:34:40;4.40;;;4.00;;
2722;SDS011;1369;53.216;10.396;2022-08-18T10:42:05;6.30;;;4.50;;
2722;SDS011;1369;53.216;10.396;2022-08-18T10:44:36;9.50;;;5.43;;
2722;SDS011;1369;53.216;10.396;2022-08-18T10:47:09;8.37;;;4.53;;
2722;SDS011;1369;53.216;10.396;2022-08-18T10:49:48;6.50;;;3.93;;
2722;SDS011;1369;53.216;10.396;2022-08-18T10:52:27;6.60;;;4.50;;
2722;SDS011;1369;53.216;10.396;2022-08-18T10:55:06;9.13;;;4.67;;
2722;SDS011;1369;53.216;10.396;2022-08-18T10:57:56;6.20;;;4.13;;
2722;SDS011;1369;53.216;10.396;2022-08-18T11:00:25;8.37;;;5.03;;
2722;SDS011;1369;53.216;10.396;2022-08-18T11:03:12;7.03;;;4.87;;
2722;SDS011;1369;53.216;10.396;2022-08-18T11:05:59;5.40;;;4.50;;
2722;SDS011;1369;53.216;10.396;2022-08-18T11:08:30;8.73;;;4.27;;
2722;SDS011;1369;53.216;10.396;2022-08-18T11:11:08;6.10;;;4.00;;
2722;SDS011;1369;53.216;10.396;2022-08-18T11:16:32;5.47;;;4.87;;
2722;SDS011;1369;53.216;10.396;2022-08-18T11:19:13;8.10;;;4.73;;
2722;SDS011;1369;53.216;10.396;2022-08-18T11:21:42;8.03;;;4.53;;
2722;SDS011;1369;53.216;10.396;2022-08-18T11:26:52;5.43;;;4.37;;
2722;SDS011;1369;53.216;10.396;2022-08-18T11:35:04;5.27;;;3.57;;
2722;SDS011;1369;53.216;10.396;2022-08-18T11:40:36;6.10;;;4.20;;
2722;SDS011;1369;53.216;10.396;2022-08-18T11:51:00;4.40;;;3.37;;
2722;SDS011;1369;53.216;10.396;2022-08-18T11:56:34;6.70;;;5.23;;
2722;SDS011;1369;53.216;10.396;2022-08-18T12:01:53;5.37;;;4.17;;
2722;SDS011;1369;53.216;10.396;2022-08-18T12:04:36;4.80;;;3.90;;
2722;SDS011;1369;53.216;10.396;2022-08-18T12:07:05;5.37;;;3.77;;
2722;SDS011;1369;53.216;10.396;2022-08-18T12:09:47;6.50;;;4.27;;
2722;SDS011;1369;53.216;10.396;2022-08-18T12:12:33;5.70;;;4.67;;
2722;SDS011;1369;53.216;10.396;2022-08-18T12:17:41;5.83;;;4.53;;
2722;SDS011;1369;53.216;10.396;2022-08-18T12:20:09;4.77;;;4.27;;
2722;SDS011;1369;53.216;10.396;2022-08-18T12:22:36;4.40;;;3.57;;
2722;SDS011;1369;53.216;10.396;2022-08-18T12:25:06;7.07;;;4.10;;
2722;SDS011;1369;53.216;10.396;2022-08-18T12:27:33;5.60;;;3.33;;
2722;SDS011;1369;53.216;10.396;2022-08-18T12:29:59;6.20;;;3.20;;
2722;SDS011;1369;53.216;10.396;2022-08-18T12:32:26;5.10;;;3.40;;
2722;SDS011;1369;53.216;10.396;2022-08-18T12:34:53;3.80;;;3.40;;
2722;SDS011;1369;53.216;10.396;2022-08-18T12:37:20;4.77;;;3.83;;
2722;SDS011;1369;53.216;10.396;2022-08-18T12:39:48;4.43;;;4.00;;
2722;SDS011;1369;53.216;10.396;2022-08-18T12:42:15;4.10;;;3.63;;
2722;SDS011;1369;53.216;10.396;2022-08-18T12:44:42;7.10;;;3.50;;
2722;SDS011;1369;53.216;10.396;2022-08-18T12:47:12;4.27;;;3.30;;
2722;SDS011;1369;53.216;10.396;2022-08-18T12:49:39;4.30;;;3.77;;
2722;SDS011;1369;53.216;10.396;2022-08-18T12:52:05;3.93;;;3.20;;
2722;SDS011;1369;53.216;10.396;2022-08-18T12:54:31;4.03;;;3.60;;
2722;SDS011;1369;53.216;10.396;2022-08-18T12:56:58;5.80;;;3.17;;
2722;SDS011;1369;53.216;10.396;2022-08-18T12:59:24;6.03;;;3.60;;
2722;SDS011;1369;53.216;10.396;2022-08-18T13:01:50;4.40;;;3.10;;
2722;SDS011;1369;53.216;10.396;2022-08-18T13:04:16;4.30;;;3.50;;
2722;SDS011;1369;53.216;10.396;2022-08-18T13:06:46;5.30;;;3.87;;
2722;SDS011;1369;53.216;10.396;2022-08-18T13:09:17;3.80;;;3.30;;
2722;SDS011;1369;53.216;10.396;2022-08-18T13:11:43;3.37;;;3.07;;
2722;SDS011;1369;53.216;10.396;2022-08-18T13:14:09;5.60;;;3.53;;
2722;SDS011;1369;53.216;10.396;2022-08-18T13:16:35;5.20;;;4.17;;
2722;SDS011;1369;53.216;10.396;2022-08-18T13:19:03;5.20;;;4.07;;
2722;SDS011;1369;53.216;10.396;2022-08-18T13:21:29;4.93;;;3.27;;
2722;SDS011;1369;53.216;10.396;2022-08-18T13:23:54;5.73;;;4.97;;
2722;SDS011;1369;53.216;10.396;2022-08-18T13:26:24;4.47;;;3.80;;
2722;SDS011;1369;53.216;10.396;2022-08-18T13:28:55;6.17;;;4.50;;
2722;SDS011;1369;53.216;10.396;2022-08-18T13:31:22;5.83;;;3.90;;
2722;SDS011;1369;53.216;10.396;2022-08-18T13:33:47;6.33;;;4.10;;
2722;SDS011;1369;53.216;10.396;2022-08-18T13:36:14;4.03;;;3.67;;
2722;SDS011;1369;53.216;10.396;2022-08-18T13:38:39;6.37;;;4.07;;
2722;SDS011;1369;53.216;10.396;2022-08-18T13:41:06;4.10;;;3.57;;
2722;SDS011;1369;53.216;10.396;2022-08-18T13:43:34;4.03;;;3.57;;
2722;SDS011;1369;53.216;10.396;2022-08-18T13:46:07;6.10;;;3.70;;
2722;SDS011;1369;53.216;10.396;2022-08-18T13:48:33;6.50;;;4.30;;
2722;SDS011;1369;53.216;10.396;2022-08-18T13:50:59;5.57;;;4.60;;
2722;SDS011;1369;53.216;10.396;2022-08-18T13:53:27;5.33;;;3.90;;
2722;SDS011;1369;53.216;10.396;2022-08-18T13:55:54;6.50;;;4.73;;
2722;SDS011;1369;53.216;10.396;2022-08-18T13:58:23;3.70;;;3.27;;
2722;SDS011;1369;53.216;10.396;2022-08-18T14:00:50;5.00;;;3.83;;
2722;SDS011;1369;53.216;10.396;2022-08-18T14:03:18;5.43;;;3.93;;
2722;SDS011;1369;53.216;10.396;2022-08-18T14:05:47;4.70;;;4.00;;
2722;SDS011;1369;53.216;10.396;2022-08-18T14:08:13;7.90;;;4.30;;
2722;SDS011;1369;53.216;10.396;2022-08-18T14:10:38;4.73;;;3.50;;
2722;SDS011;1369;53.216;10.396;2022-08-18T14:13:04;4.03;;;3.30;;
2722;SDS011;1369;53.216;10.396;2022-08-18T14:15:31;5.37;;;3.73;;
2722;SDS011;1369;53.216;10.396;2022-08-18T14:18:00;5.80;;;4.10;;
2722;SDS011;1369;53.216;10.396;2022-08-18T14:20:25;4.63;;;3.97;;
2722;SDS011;1369;53.216;10.396;2022-08-18T14:23:10;5.13;;;4.40;;
2722;SDS011;1369;53.216;10.396;2022-08-18T14:25:54;5.20;;;4.10;;
2722;SDS011;1369;53.216;10.396;2022-08-18T14:28:38;3.97;;;3.47;;
2722;SDS011;1369;53.216;10.396;2022-08-18T14:31:04;4.47;;;3.43;;
2722;SDS011;1369;53.216;10.396;2022-08-18T14:33:30;4.83;;;4.20;;
2722;SDS011;1369;53.216;10.396;2022-08-18T14:35:56;4.57;;;3.57;;
2722;SDS011;1369;53.216;10.396;2022-08-18T14:38:22;4.43;;;3.63;;
2722;SDS011;1369;53.216;10.396;2022-08-18T14:40:48;8.30;;;4.07;;
2722;SDS011;1369;53.216;10.396;2022-08-18T14:43:15;4.23;;;3.50;;
2722;SDS011;1369;53.216;10.396;2022-08-18T14:45:43;4.90;;;3.20;;
2722;SDS011;1369;53.216;10.396;2022-08-18T14:48:12;3.73;;;3.20;;
2722;SDS011;1369;53.216;10.396;2022-08-18T14:50:40;5.33;;;2.90;;
2722;SDS011;1369;53.216;10.396;2022-08-18T14:53:07;3.97;;;3.30;;
2722;SDS011;1369;53.216;10.396;2022-08-18T14:55:33;3.60;;;3.10;;
2722;SDS011;1369;53.216;10.396;2022-08-18T14:57:59;3.80;;;3.43;;
2722;SDS011;1369;53.216;10.396;2022-08-18T15:00:26;3.93;;;3.20;;
2722;SDS011;1369;53.216;10.396;2022-08-18T15:02:51;3.77;;;3.13;;
2722;SDS011;1369;53.216;10.396;2022-08-18T15:05:17;3.43;;;3.13;;
2722;SDS011;1369;53.216;10.396;2022-08-18T15:07:43;5.13;;;3.50;;
2722;SDS011;1369;53.216;10.396;2022-08-18T15:10:09;3.73;;;3.37;;
2722;SDS011;1369;53.216;10.396;2022-08-18T15:12:36;4.00;;;3.10;;
2722;SDS011;1369;53.216;10.396;2022-08-18T15:15:03;3.80;;;2.67;;
2722;SDS011;1369;53.216;10.396;2022-08-18T15:17:34;4.33;;;3.60;;
2722;SDS011;1369;53.216;10.396;2022-08-18T15:20:03;4.87;;;2.70;;
2722;SDS011;1369;53.216;10.396;2022-08-18T15:22:37;4.67;;;2.83;;
2722;SDS011;1369;53.216;10.396;2022-08-18T15:25:26;6.07;;;4.20;;
2722;SDS011;1369;53.216;10.396;2022-08-18T15:28:09;4.20;;;3.60;;
2722;SDS011;1369;53.216;10.396;2022-08-18T15:30:36;4.47;;;3.33;;
2722;SDS011;1369;53.216;10.396;2022-08-18T15:33:06;4.03;;;3.33;;
2722;SDS011;1369;53.216;10.396;2022-08-18T15:35:33;3.87;;;3.23;;
2722;SDS011;1369;53.216;10.396;2022-08-18T15:37:58;3.17;;;2.80;;
2722;SDS011;1369;53.216;10.396;2022-08-18T15:40:25;3.20;;;2.70;;
2722;SDS011;1369;53.216;10.396;2022-08-18T15:42:52;4.57;;;2.83;;
2722;SDS011;1369;53.216;10.396;2022-08-18T15:45:31;3.03;;;2.73;;
2722;SDS011;1369;53.216;10.396;2022-08-18T15:47:59;3.93;;;3.07;;
2722;SDS011;1369;53.216;10.396;2022-08-18T15:50:25;4.00;;;2.90;;
2722;SDS011;1369;53.216;10.396;2022-08-18T15:52:56;4.37;;;3.13;;
2722;SDS011;1369;53.216;10.396;2022-08-18T15:55:23;5.40;;;3.37;;
2722;SDS011;1369;53.216;10.396;2022-08-18T15:57:50;3.90;;;3.33;;
2722;SDS011;1369;53.216;10.396;2022-08-18T16:00:18;3.10;;;2.70;;
2722;SDS011;1369;53.216;10.396;2022-08-18T16:02:51;4.03;;;3.50;;
2722;SDS011;1369;53.216;10.396;2022-08-18T16:05:22;3.80;;;2.97;;
2722;SDS011;1369;53.216;10.396;2022-08-18T16:07:50;4.00;;;3.60;;
2722;SDS011;1369;53.216;10.396;2022-08-18T16:10:16;3.47;;;2.93;;
2722;SDS011;1369;53.216;10.396;2022-08-18T16:12:44;5.93;;;3.20;;
2722;SDS011;1369;53.216;10.396;2022-08-18T16:15:10;3.80;;;3.47;;
2722;SDS011;1369;53.216;10.396;2022-08-18T16:17:36;3.63;;;3.00;;
2722;SDS011;1369;53.216;10.396;2022-08-18T16:20:02;6.83;;;3.43;;
2722;SDS011;1369;53.216;10.396;2022-08-18T16:22:29;4.70;;;3.70;;
2722;SDS011;1369;53.216;10.396;2022-08-18T16:24:56;3.90;;;3.17;;
2722;SDS011;1369;53.216;10.396;2022-08-18T16:27:22;4.83;;;3.97;;
2722;SDS011;1369;53.216;10.396;2022-08-18T16:29:48;6.63;;;4.90;;
2722;SDS011;1369;53.216;10.396;2022-08-18T16:32:13;4.13;;;3.70;;
2722;SDS011;1369;53.216;10.396;2022-08-18T16:34:39;4.33;;;3.70;;
2722;SDS011;1369;53.216;10.396;2022-08-18T16:37:05;3.83;;;3.30;;
2722;SDS011;1369;53.216;10.396;2022-08-18T16:39:33;4.03;;;3.20;;
2722;SDS011;1369;53.216;10.396;2022-08-18T16:41:59;3.73;;;2.80;;
2722;SDS011;1369;53.216;10.396;2022-08-18T16:44:24;3.70;;;3.13;;
2722;SDS011;1369;53.216;10.396;2022-08-18T16:46:52;4.87;;;4.30;;
2722;SDS011;1369;53.216;10.396;2022-08-18T16:49:18;3.70;;;3.37;;
2722;SDS011;1369;53.216;10.396;2022-08-18T16:51:44;3.10;;;2.80;;
2722;SDS011;1369;53.216;10.396;2022-08-18T16:54:10;4.00;;;3.17;;
2722;SDS011;1369;53.216;10.396;2022-08-18T16:56:38;4.10;;;3.77;;
2722;SDS011;1369;53.216;10.396;2022-08-18T16:59:03;7.10;;;4.30;;
2722;SDS011;1369;53.216;10.396;2022-08-18T17:01:47;4.47;;;3.50;;
2722;SDS011;1369;53.216;10.396;2022-08-18T17:04:31;4.50;;;3.87;;
2722;SDS011;1369;53.216;10.396;2022-08-18T17:06:58;7.87;;;4.30;;
2722;SDS011;1369;53.216;10.396;2022-08-18T17:09:25;4.17;;;3.77;;
2722;SDS011;1369;53.216;10.396;2022-08-18T17:11:51;4.77;;;4.30;;
2722;SDS011;1369;53.216;10.396;2022-08-18T17:14:21;5.30;;;4.00;;
2722;SDS011;1369;53.216;10.396;2022-08-18T17:16:49;6.23;;;4.53;;
2722;SDS011;1369;53.216;10.396;2022-08-18T17:19:18;4.73;;;3.10;;
2722;SDS011;1369;53.216;10.396;2022-08-18T17:21:43;4.13;;;3.40;;
2722;SDS011;1369;53.216;10.396;2022-08-18T17:24:09;4.97;;;3.70;;
2722;SDS011;1369;53.216;10.396;2022-08-18T17:26:58;4.77;;;3.77;;
2722;SDS011;1369;53.216;10.396;2022-08-18T17:29:41;5.27;;;3.87;;
2722;SDS011;1369;53.216;10.396;2022-08-18T17:35:21;5.03;;;3.73;;